Time;durP1;ratioP1;P1;durP2;ratioP2;P2;SDS_P1;SDS_P2;PMS_P1;PMS_P2;Temp;Humidity;BMP_temperature;BMP_pressure;BME280_temperature;BME280_humidity;BME280_pressure;Samples;Min_cycle;Max_cycle;Signal;HPM_P1;HPM_P2
2020/12/07 00:01:07;;;;;;;39.75;25.98;;;;;;;6.33;73.90;99535.13;5030807;28;20065;-73
2020/12/07 00:03:35;;;;;;;37.50;24.98;;;;;;;6.56;73.21;99526.53;5025056;28;20058;-72
2020/12/07 00:06:03;;;;;;;36.80;25.08;;;;;;;6.40;73.14;99527.25;5031363;28;20053;-72
2020/12/07 00:08:30;;;;;;;34.90;24.35;;;;;;;6.17;73.96;99521.03;5012454;28;20057;-72
2020/12/07 00:10:58;;;;;;;33.55;23.67;;;;;;;6.54;73.04;99523.31;5030791;28;20054;-73
2020/12/07 00:13:25;;;;;;;33.72;23.40;;;;;;;6.28;73.60;99519.66;5010532;28;20053;-74
2020/12/07 00:16:11;;;;;;;38.20;24.27;;;;;;;6.14;74.57;99520.84;5010623;28;20520;-74
2020/12/07 00:18:40;;;;;;;35.58;25.02;;;;;;;6.23;74.16;99514.31;5032872;28;20049;-76
2020/12/07 00:21:09;;;;;;;36.38;24.17;;;;;;;6.17;74.08;99514.78;5026930;28;20052;-75
2020/12/07 00:23:36;;;;;;;37.53;24.48;;;;;;;5.84;74.92;99514.22;5013699;28;20054;-76
2020/12/07 00:26:07;;;;;;;35.88;24.10;;;;;;;5.64;75.29;99509.25;5019029;28;20052;-75
2020/12/07 00:28:35;;;;;;;36.00;24.75;;;;;;;5.61;75.62;99507.94;5021425;28;20069;-75
2020/12/07 00:31:06;;;;;;;35.15;24.70;;;;;;;5.57;75.92;99506.16;5031103;28;20582;-75
2020/12/07 00:33:33;;;;;;;39.88;25.05;;;;;;;5.46;76.32;99504.75;5031440;28;20060;-72
2020/12/07 00:36:01;;;;;;;35.53;24.77;;;;;;;5.42;76.85;99506.53;5014142;28;20061;-74
2020/12/07 00:38:28;;;;;;;33.20;23.63;;;;;;;5.15;77.80;99515.59;5014208;28;20053;-76
2020/12/07 00:40:55;;;;;;;38.72;25.83;;;;;;;4.85;78.66;99509.97;5029414;28;20049;-75
2020/12/07 00:43:21;;;;;;;42.22;25.10;;;;;;;4.76;79.54;99496.25;5031450;28;20045;-76
2020/12/07 00:45:51;;;;;;;34.50;24.70;;;;;;;4.90;79.64;99507.16;5032072;28;20062;-75
2020/12/07 00:48:18;;;;;;;38.75;25.40;;;;;;;4.88;79.39;99507.44;5028696;28;20056;-75
2020/12/07 00:50:45;;;;;;;36.83;25.50;;;;;;;5.22;78.36;99504.25;5014850;28;20045;-74
2020/12/07 00:53:12;;;;;;;36.38;25.05;;;;;;;5.08;78.56;99498.00;5031431;28;20045;-75
2020/12/07 00:55:39;;;;;;;38.42;25.77;;;;;;;5.00;78.55;99510.47;5025984;28;20045;-76
2020/12/07 00:58:06;;;;;;;38.13;25.20;;;;;;;4.88;79.49;99506.66;5025496;28;20057;-75
2020/12/07 01:00:33;;;;;;;38.97;25.52;;;;;;;4.66;80.22;99496.47;5028074;28;20049;-76
2020/12/07 01:03:01;;;;;;;36.33;25.38;;;;;;;5.04;79.90;99500.53;5026359;28;20056;-74
2020/12/07 01:05:29;;;;;;;37.33;25.92;;;;;;;5.07;78.82;99502.69;5025033;28;20056;-77
2020/12/07 01:08:01;;;;;;;39.58;26.05;;;;;;;4.78;79.61;99504.16;5030252;28;20049;-75
2020/12/07 01:10:29;;;;;;;42.15;26.52;;;;;;;4.44;81.23;99504.56;5043152;28;20037;-74
2020/12/07 01:12:57;;;;;;;39.80;26.40;;;;;;;4.42;81.78;99504.03;4994647;28;20049;-75
2020/12/07 01:15:31;;;;;;;41.47;28.13;;;;;;;4.69;81.18;99501.31;5027310;28;20485;-74
2020/12/07 01:17:58;;;;;;;40.42;26.50;;;;;;;4.64;80.93;99501.41;5043539;28;20042;-75
2020/12/07 01:20:25;;;;;;;39.05;26.83;;;;;;;4.69;80.84;99505.97;5011012;28;20041;-75
2020/12/07 01:22:56;;;;;;;40.70;27.40;;;;;;;4.75;81.01;99512.91;5023737;28;20057;-75
2020/12/07 01:25:46;;;;;;;41.13;26.83;;;;;;;4.75;80.32;99504.72;5035021;28;20069;-74
2020/12/07 01:28:49;;;;;;;39.30;25.13;;;;;;;4.88;80.42;99510.16;4961644;29;20059;-75
2020/12/07 01:31:19;;;;;;;46.22;26.70;;;;;;;5.11;79.14;99514.56;5012984;28;20053;-75
2020/12/07 01:33:47;;;;;;;45.92;27.77;;;;;;;4.84;79.54;99509.19;5029750;28;20053;-74
2020/12/07 01:36:15;;;;;;;42.00;27.27;;;;;;;4.64;80.48;99516.97;5026638;28;20045;-75
2020/12/07 01:38:48;;;;;;;43.47;28.98;;;;;;;4.55;80.64;99517.66;5009897;28;20069;-75
2020/12/07 01:41:19;;;;;;;40.45;27.73;;;;;;;4.42;81.73;99521.22;5045524;28;20058;-75
2020/12/07 01:43:46;;;;;;;42.75;28.77;;;;;;;4.67;81.19;99519.91;5045263;28;20057;-75
2020/12/07 01:46:18;;;;;;;43.83;27.25;;;;;;;4.91;80.47;99519.69;5021331;28;20053;-74
2020/12/07 01:48:46;;;;;;;39.25;27.20;;;;;;;4.92;79.67;99516.63;5031678;28;20049;-74
2020/12/07 01:51:14;;;;;;;38.80;25.95;;;;;;;5.01;78.96;99514.81;4997818;28;20049;-74
2020/12/07 01:53:43;;;;;;;40.05;27.38;;;;;;;5.00;78.79;99515.13;4998319;28;20057;-76
2020/12/07 01:56:28;;;;;;;41.97;27.50;;;;;;;4.99;78.95;99516.22;5015019;28;20057;-75
2020/12/07 01:59:19;;;;;;;41.40;27.20;;;;;;;4.82;79.10;99518.78;4983511;28;20069;-75
2020/12/07 02:01:48;;;;;;;41.70;27.80;;;;;;;5.15;78.24;99512.03;4993831;28;20057;-73
2020/12/07 02:04:21;;;;;;;40.45;26.88;;;;;;;5.36;78.35;99519.47;4980270;28;20053;-75
2020/12/07 02:06:49;;;;;;;40.67;27.75;;;;;;;5.25;77.09;99514.53;4995411;28;20058;-74
2020/12/07 02:09:26;;;;;;;43.70;28.38;;;;;;;5.03;78.03;99518.03;5030192;28;20057;-74
2020/12/07 02:12:21;;;;;;;42.55;28.88;;;;;;;5.08;78.18;99511.66;5006311;28;20057;-74
2020/12/07 02:14:49;;;;;;;44.03;28.70;;;;;;;5.49;77.47;99507.69;5014143;28;20064;-75
2020/12/07 02:17:16;;;;;;;43.60;28.10;;;;;;;5.44;76.25;99520.69;4997868;28;20068;-74
2020/12/07 02:19:50;;;;;;;41.53;28.45;;;;;;;5.02;77.73;99515.63;5017086;28;20068;-75
2020/12/07 02:22:19;;;;;;;49.30;30.02;;;;;;;4.70;78.97;99518.47;5015920;28;20543;-76
2020/12/07 02:25:14;;;;;;;43.92;29.88;;;;;;;4.84;79.12;99517.38;5033027;28;20045;-75
2020/12/07 02:27:41;;;;;;;41.95;29.05;;;;;;;4.99;78.36;99517.03;5016679;28;20044;-75
2020/12/07 02:30:09;;;;;;;41.15;27.15;;;;;;;5.37;77.56;99506.63;5031769;28;20076;-75
2020/12/07 02:32:37;;;;;;;41.08;26.63;;;;;;;5.27;76.99;99506.84;5033899;28;20068;-74
2020/12/07 02:35:18;;;;;;;43.28;26.85;;;;;;;5.27;76.82;99502.22;5012212;28;20046;-74
2020/12/07 02:37:49;;;;;;;44.75;28.80;;;;;;;5.27;76.70;99501.38;4992064;28;20066;-74
2020/12/07 02:40:19;;;;;;;41.33;27.98;;;;;;;5.17;77.07;99505.19;4998006;28;20056;-75
2020/12/07 02:42:49;;;;;;;41.67;27.08;;;;;;;5.28;76.76;99505.75;4997249;28;20057;-75
2020/12/07 02:45:22;;;;;;;44.95;29.45;;;;;;;5.17;76.90;99507.09;5013726;28;20057;-75
2020/12/07 02:48:09;;;;;;;42.65;28.70;;;;;;;4.86;78.17;99501.50;5024506;28;20053;-76
2020/12/07 02:50:57;;;;;;;47.85;30.17;;;;;;;4.68;79.04;99509.78;5033179;28;20527;-74
2020/12/07 02:53:36;;;;;;;47.63;30.33;;;;;;;4.62;79.87;99511.81;5036901;28;20072;-76
2020/12/07 02:56:10;;;;;;;47.67;31.17;;;;;;;4.65;80.05;99510.41;5015258;28;20056;-74
2020/12/07 02:58:54;;;;;;;47.13;29.65;;;;;;;5.10;78.22;99502.06;5023026;28;20066;-75
2020/12/07 03:01:21;;;;;;;46.10;29.85;;;;;;;5.20;77.96;99498.28;5028975;28;20073;-75
2020/12/07 03:03:55;;;;;;;47.42;29.40;;;;;;;5.16;77.60;99491.84;5035316;28;20060;-75
2020/12/07 03:06:24;;;;;;;45.97;29.37;;;;;;;4.96;77.94;99490.38;5034250;28;20050;-74
2020/12/07 03:09:04;;;;;;;45.17;29.93;;;;;;;4.92;78.16;99489.34;5017488;28;20300;-75
2020/12/07 03:11:44;;;;;;;47.95;30.13;;;;;;;4.68;78.75;99491.50;5017353;28;20508;-75
2020/12/07 03:14:17;;;;;;;49.05;31.42;;;;;;;4.58;80.05;99494.47;5016768;28;20060;-74
2020/12/07 03:16:57;;;;;;;47.45;30.30;;;;;;;4.85;79.04;99490.88;4984220;28;20515;-74
2020/12/07 03:19:30;;;;;;;44.45;28.55;;;;;;;5.55;76.78;99484.63;5015241;28;20053;-74
2020/12/07 03:22:07;;;;;;;46.63;30.00;;;;;;;5.28;76.67;99481.19;5016134;28;20072;-75
2020/12/07 03:24:34;;;;;;;44.40;28.45;;;;;;;5.24;77.48;99480.19;5015840;28;20045;-76
2020/12/07 03:27:07;;;;;;;48.63;28.80;;;;;;;5.35;77.24;99474.16;5015698;28;20037;-75
2020/12/07 03:29:34;;;;;;;45.17;30.63;;;;;;;4.96;77.81;99479.44;5014108;28;20057;-75
2020/12/07 03:32:02;;;;;;;46.50;29.30;;;;;;;5.17;77.26;99477.88;5015380;28;20056;-76
2020/12/07 03:34:32;;;;;;;45.92;29.50;;;;;;;5.15;77.11;99471.91;5015892;28;20695;-75
2020/12/07 03:37:22;;;;;;;44.33;28.67;;;;;;;5.07;77.47;99463.66;5005077;28;20045;-73
2020/12/07 03:39:57;;;;;;;45.13;29.35;;;;;;;5.22;77.24;99469.56;5015827;28;20064;-74
2020/12/07 03:42:32;;;;;;;41.40;27.83;;;;;;;5.29;76.48;99471.88;5001175;28;20053;-74
2020/12/07 03:45:04;;;;;;;46.70;28.88;;;;;;;4.97;77.06;99464.69;5015841;28;20072;-73
2020/12/07 03:47:33;;;;;;;42.22;27.85;;;;;;;5.28;76.69;99471.06;5014527;28;20045;-75
2020/12/07 03:50:00;;;;;;;42.65;28.10;;;;;;;4.95;77.24;99474.31;5031451;28;20068;-73
2020/12/07 03:52:27;;;;;;;40.88;27.70;;;;;;;5.26;76.01;99473.31;5032085;28;20060;-76
2020/12/07 03:55:01;;;;;;;44.13;28.35;;;;;;;5.31;76.21;99472.38;5048749;28;20052;-74
2020/12/07 03:57:29;;;;;;;39.92;26.30;;;;;;;5.43;75.19;99462.53;5028588;28;20045;-74
2020/12/07 04:00:00;;;;;;;40.45;26.38;;;;;;;5.20;76.25;99462.78;5016090;28;20057;-74
2020/12/07 04:02:28;;;;;;;40.10;26.60;;;;;;;5.42;75.37;99463.63;5033253;28;20052;-74
2020/12/07 04:05:04;;;;;;;40.80;27.00;;;;;;;5.69;74.75;99455.31;5015699;28;20374;-75
2020/12/07 04:07:39;;;;;;;36.10;25.08;;;;;;;5.06;76.41;99445.66;5001723;28;20041;-76
2020/12/07 04:10:07;;;;;;;38.65;25.73;;;;;;;5.26;76.23;99448.75;5015252;28;20058;-75
2020/12/07 04:12:34;;;;;;;37.25;26.23;;;;;;;5.06;76.68;99446.47;5032418;28;20512;-74
2020/12/07 04:15:02;;;;;;;37.95;26.05;;;;;;;4.99;77.25;99442.53;5033390;28;20405;-74
2020/12/07 04:17:29;;;;;;;41.55;26.70;;;;;;;4.91;77.41;99441.38;5031140;28;20056;-74
2020/12/07 04:19:56;;;;;;;40.88;27.02;;;;;;;4.94;77.82;99445.38;4998945;28;20056;-76
2020/12/07 04:22:23;;;;;;;40.10;26.55;;;;;;;5.14;76.84;99447.66;5032026;28;20045;-76
2020/12/07 04:24:51;;;;;;;41.25;27.42;;;;;;;4.99;77.17;99446.09;5013545;28;20054;-76
2020/12/07 04:27:18;;;;;;;41.33;27.60;;;;;;;5.09;76.98;99445.84;5005318;28;20068;-75
2020/12/07 04:29:48;;;;;;;38.55;25.67;;;;;;;5.01;77.18;99441.13;5031640;28;20095;-76
2020/12/07 04:32:17;;;;;;;39.25;25.98;;;;;;;5.04;77.00;99443.25;5012143;28;20394;-74
2020/12/07 04:34:45;;;;;;;42.22;27.85;;;;;;;4.92;78.01;99433.97;4999036;28;20057;-75
2020/12/07 04:37:19;;;;;;;37.22;25.75;;;;;;;4.98;78.01;99438.22;5015264;28;20053;-73
2020/12/07 04:39:46;;;;;;;38.38;27.60;;;;;;;5.09;77.46;99436.88;5030356;28;20061;-74
2020/12/07 04:42:14;;;;;;;38.40;26.38;;;;;;;5.31;76.61;99445.06;5031607;28;20497;-74
2020/12/07 04:44:42;;;;;;;38.65;26.45;;;;;;;5.37;75.84;99441.91;5021688;28;20046;-74
2020/12/07 04:47:33;;;;;;;38.28;25.42;;;;;;;5.16;76.79;99440.78;4975310;28;20054;-76
2020/12/07 04:50:06;;;;;;;39.67;25.95;;;;;;;5.17;76.92;99439.66;5008692;28;20057;-75
2020/12/07 04:52:36;;;;;;;39.50;26.17;;;;;;;4.91;77.70;99435.09;5010200;28;20413;-75
2020/12/07 04:55:05;;;;;;;37.88;25.52;;;;;;;5.03;77.59;99432.63;5029819;28;20049;-76
2020/12/07 04:57:35;;;;;;;42.13;25.50;;;;;;;4.81;78.75;99438.06;5029432;28;20058;-75
2020/12/07 05:00:06;;;;;;;39.33;25.38;;;;;;;4.76;79.13;99438.97;5030294;28;20061;-76
2020/12/07 05:02:36;;;;;;;;;;;;;;;5.01;78.23;99440.31;5030867;28;20075;-74
2020/12/07 05:05:06;;;;;;;37.65;24.63;;;;;;;5.12;77.54;99437.06;5030079;28;19921;-75
2020/12/07 05:07:47;;;;;;;42.28;26.42;;;;;;;5.50;76.79;99434.75;5032093;28;20050;-74
2020/12/07 05:10:16;;;;;;;38.10;25.40;;;;;;;5.56;75.73;99433.53;5032080;28;20057;-77
2020/12/07 05:12:48;;;;;;;43.08;26.85;;;;;;;5.20;77.03;99440.97;5030875;28;20385;-75
2020/12/07 05:15:16;;;;;;;36.47;25.90;;;;;;;5.43;76.13;99437.13;5012505;28;20062;-74
2020/12/07 05:17:44;;;;;;;36.92;25.42;;;;;;;5.71;75.68;99430.41;5032417;28;20041;-76
2020/12/07 05:20:14;;;;;;;35.10;24.13;;;;;;;5.81;75.13;99430.13;5030871;28;20440;-74
2020/12/07 05:22:41;;;;;;;35.88;24.27;;;;;;;5.94;74.55;99432.00;5031648;28;20053;-74
2020/12/07 05:25:08;;;;;;;37.42;24.48;;;;;;;5.82;74.20;99429.03;5031405;28;20060;-74
2020/12/07 05:27:56;;;;;;;36.35;24.02;;;;;;;5.79;75.18;99423.38;5031341;28;20366;-74
2020/12/07 05:30:46;;;;;;;36.40;25.00;;;;;;;5.72;75.51;99429.28;5003584;28;20053;-74
2020/12/07 05:33:17;;;;;;;36.72;25.25;;;;;;;5.69;75.28;99417.06;4999312;28;20056;-77
2020/12/07 05:35:53;;;;;;;36.17;25.60;;;;;;;5.58;75.34;99436.75;5032413;28;20061;-75
2020/12/07 05:38:32;;;;;;;40.08;25.05;;;;;;;5.73;75.29;99430.91;5016264;28;20056;-74
2020/12/07 05:41:04;;;;;;;37.30;24.75;;;;;;;5.85;75.05;99427.63;5031879;28;20049;-75
2020/12/07 05:43:36;;;;;;;36.20;24.48;;;;;;;5.85;74.49;99427.63;5031429;28;20060;-76
2020/12/07 05:46:10;;;;;;;33.85;24.08;;;;;;;5.95;74.58;99433.63;5031583;28;20046;-74
2020/12/07 05:48:39;;;;;;;;;;;;;;;5.68;74.91;99426.34;5015136;28;20485;-75
2020/12/07 05:51:07;;;;;;;38.50;24.48;;;;;;;5.68;75.55;99428.31;5031311;28;19924;-74
2020/12/07 05:53:36;;;;;;;35.55;24.55;;;;;;;5.46;75.58;99441.97;5034147;28;20065;-75
2020/12/07 05:56:09;;;;;;;36.40;25.38;;;;;;;5.59;75.95;99430.19;5038147;28;20385;-73
2020/12/07 05:58:57;;;;;;;40.25;24.23;;;;;;;5.75;75.16;99428.66;5026518;28;20378;-73
2020/12/07 06:01:25;;;;;;;35.63;24.20;;;;;;;5.63;75.51;99431.16;5021220;28;20045;-76
2020/12/07 06:03:54;;;;;;;39.90;25.13;;;;;;;5.73;75.41;99422.72;5036058;28;20054;-77
2020/12/07 06:06:32;;;;;;;35.15;24.23;;;;;;;5.65;75.61;99423.44;5017941;28;20512;-75
2020/12/07 06:09:27;;;;;;;34.85;24.77;;;;;;;5.81;75.25;99424.66;5035083;28;20052;-76
2020/12/07 06:12:09;;;;;;;43.55;24.75;;;;;;;5.75;74.80;99424.00;4999864;28;20504;-75
2020/12/07 06:14:41;;;;;;;34.72;23.52;;;;;;;5.57;75.79;99422.28;5018098;28;20046;-77
2020/12/07 06:17:17;;;;;;;36.45;23.88;;;;;;;5.78;75.47;99424.50;5001711;28;20046;-75
2020/12/07 06:19:49;;;;;;;36.25;24.30;;;;;;;6.08;74.72;99420.97;5000646;28;20057;-75
2020/12/07 06:22:23;;;;;;;33.92;24.38;;;;;;;6.33;73.49;99421.06;5017291;28;20404;-75
2020/12/07 06:24:54;;;;;;;36.60;23.67;;;;;;;5.85;74.77;99420.22;5017799;28;20060;-76
2020/12/07 06:27:28;;;;;;;38.45;24.00;;;;;;;5.92;74.26;99425.25;5015943;28;20049;-76
2020/12/07 06:29:59;;;;;;;36.78;24.58;;;;;;;6.14;74.54;99423.25;5001515;28;20045;-74
2020/12/07 06:32:52;;;;;;;34.70;23.77;;;;;;;6.19;73.31;99419.59;5033751;28;20053;-74
2020/12/07 06:35:26;;;;;;;38.65;23.92;;;;;;;5.95;74.16;99424.59;5017177;28;20045;-75
2020/12/07 06:37:53;;;;;;;35.17;24.40;;;;;;;5.83;74.90;99422.47;5000500;28;20056;-74
2020/12/07 06:40:23;;;;;;;37.47;24.65;;;;;;;5.69;75.66;99422.53;5034232;28;20053;-75
2020/12/07 06:42:51;;;;;;;33.03;23.33;;;;;;;5.75;75.60;99423.22;5036003;28;20048;-74
2020/12/07 06:45:27;;;;;;;39.05;24.35;;;;;;;5.86;74.99;99426.50;5002604;28;20064;-76
2020/12/07 06:48:15;;;;;;;40.60;23.73;;;;;;;5.72;75.81;99426.53;5035583;28;20056;-76
2020/12/07 06:50:46;;;;;;;34.53;22.23;;;;;;;5.81;76.20;99429.31;5000894;28;20386;-74
2020/12/07 06:53:38;;;;;;;35.72;22.98;;;;;;;5.86;75.93;99427.28;5033927;28;20049;-74
2020/12/07 06:56:09;;;;;;;38.97;23.13;;;;;;;5.88;75.29;99433.25;5033182;28;20412;-74
2020/12/07 06:58:39;;;;;;;34.45;23.70;;;;;;;5.70;76.21;99432.31;5034758;28;20141;-75
2020/12/07 07:01:14;;;;;;;35.53;23.50;;;;;;;5.71;76.09;99428.50;5033834;28;20061;-75
2020/12/07 07:03:52;;;;;;;35.20;23.08;;;;;;;5.70;76.20;99434.28;5032015;28;20136;-73
2020/12/07 07:06:23;;;;;;;41.28;26.60;;;;;;;5.69;75.52;99429.91;5031425;28;20057;-73
2020/12/07 07:08:51;;;;;;;50.28;32.50;;;;;;;5.85;75.80;99435.81;5033913;28;20049;-73
2020/12/07 07:11:29;;;;;;;43.65;24.77;;;;;;;5.72;75.74;99432.00;5018242;28;20065;-74
2020/12/07 07:14:03;;;;;;;37.67;23.10;;;;;;;5.94;75.45;99432.00;5030167;28;20045;-73
2020/12/07 07:16:32;;;;;;;34.67;24.02;;;;;;;5.80;75.78;99435.91;5016581;28;20045;-72
2020/12/07 07:18:59;;;;;;;38.73;24.00;;;;;;;5.85;75.58;99433.06;5016053;28;20046;-75
2020/12/07 07:21:26;;;;;;;35.08;24.25;;;;;;;5.75;75.54;99434.91;5034677;28;20428;-74
2020/12/07 07:23:55;;;;;;;38.00;24.42;;;;;;;5.81;75.31;99434.78;5033261;28;20117;-72
2020/12/07 07:26:28;;;;;;;40.35;26.33;;;;;;;5.64;75.75;99433.59;5015452;28;20054;-74
2020/12/07 07:28:55;;;;;;;38.88;25.52;;;;;;;5.55;76.05;99429.19;5018571;28;20049;-74
2020/12/07 07:31:28;;;;;;;40.00;25.58;;;;;;;5.84;75.31;99428.75;5034462;28;20142;-76
2020/12/07 07:34:21;;;;;;;43.20;26.13;;;;;;;5.62;75.27;99435.00;5003959;28;20061;-75
2020/12/07 07:36:50;;;;;;;51.78;26.55;;;;;;;5.58;76.09;99432.09;5028863;28;20053;-75
2020/12/07 07:39:33;;;;;;;40.97;25.42;;;;;;;5.72;75.78;99438.28;5012366;28;20404;-77
2020/12/07 07:42:14;;;;;;;43.45;26.02;;;;;;;5.38;76.16;99437.25;5029978;28;20050;-78
2020/12/07 07:44:45;;;;;;;48.42;28.88;;;;;;;5.09;77.32;99436.88;5034309;28;20045;-78
2020/12/07 07:47:25;;;;;;;53.78;29.88;;;;;;;5.30;76.88;99446.19;5016539;28;20057;-77
2020/12/07 08:17:49;;;;;;;58.60;31.67;;;;;;;4.87;77.68;99466.81;5035681;28;20378;-76
2020/12/07 08:20:52;;;;;;;66.05;33.72;;;;;;;4.90;77.61;99469.75;4986853;28;20072;-76
2020/12/07 08:23:43;;;;;;;71.00;36.10;;;;;;;4.92;77.39;99472.16;5016132;28;20049;-74
2020/12/07 08:26:19;;;;;;;61.38;35.25;;;;;;;4.86;77.26;99473.41;5008911;28;20053;-72
2020/12/07 08:28:49;;;;;;;58.72;34.45;;;;;;;4.99;76.56;99472.56;5028585;28;20393;-74
2020/12/07 08:31:23;;;;;;;64.78;34.88;;;;;;;4.75;77.09;99467.38;5042940;28;20064;-74
2020/12/07 08:34:13;;;;;;;60.13;34.25;;;;;;;4.68;77.28;99474.34;5008622;28;20053;-73
2020/12/07 08:36:46;;;;;;;;;;;;;;;4.59;78.01;99474.25;5025517;28;20044;-73
2020/12/07 08:39:15;;;;;;;68.50;34.17;;;;;;;4.84;77.17;99470.19;5029719;28;19928;-74
2020/12/07 08:41:44;;;;;;;67.85;34.05;;;;;;;4.84;76.95;99475.63;5028519;28;20053;-73
2020/12/07 08:44:13;;;;;;;63.00;32.55;;;;;;;4.87;77.62;99473.09;5012249;28;20045;-73
2020/12/07 08:46:44;;;;;;;60.20;32.75;;;;;;;5.21;76.13;99473.41;5024039;28;20049;-74
2020/12/07 08:49:13;;;;;;;;;;;;;;;5.25;77.12;99482.59;5011407;28;20045;-74
2020/12/07 08:51:41;;;;;;;59.58;29.55;;;;;;;5.80;78.06;99480.44;5024972;28;19921;-73
2020/12/07 08:54:09;;;;;;;58.20;31.67;;;;;;;5.80;76.75;99476.91;5028091;28;20041;-75
2020/12/07 08:56:36;;;;;;;56.55;31.38;;;;;;;5.41;75.63;99477.59;5032171;28;20045;-73
2020/12/07 08:59:03;;;;;;;53.97;30.35;;;;;;;5.26;76.26;99475.22;5030329;28;20048;-73
2020/12/07 09:01:36;;;;;;;55.38;29.38;;;;;;;5.12;77.06;99478.00;5030362;28;20052;-75
2020/12/07 09:04:10;;;;;;;57.30;29.35;;;;;;;5.05;77.55;99482.25;5014264;28;20404;-75
2020/12/07 09:06:55;;;;;;;52.03;29.40;;;;;;;5.18;77.13;99476.75;5029830;28;20393;-73
2020/12/07 09:09:24;;;;;;;;;;;;;;;5.34;76.72;99474.47;5027714;28;20398;-71
2020/12/07 09:11:57;;;;;;;48.90;27.35;;;;;;;5.25;76.80;99470.84;5021421;28;19924;-70
2020/12/07 09:14:24;;;;;;;57.72;29.05;;;;;;;5.22;76.88;99474.22;5026794;28;20041;-74
2020/12/07 09:17:00;;;;;;;52.65;28.88;;;;;;;5.57;75.89;99468.72;5029053;28;20041;-73
2020/12/07 09:19:27;;;;;;;47.47;27.50;;;;;;;5.40;76.25;99470.53;5010555;28;20551;-75
2020/12/07 09:22:00;;;;;;;59.22;29.63;;;;;;;5.57;76.61;99470.63;5030813;28;20044;-74
2020/12/07 09:24:28;;;;;;;56.67;27.52;;;;;;;5.72;76.07;99472.97;5007185;28;20049;-72
2020/12/07 09:26:55;;;;;;;52.65;28.63;;;;;;;5.69;75.79;99470.88;5012869;28;20053;-70
2020/12/07 09:29:22;;;;;;;52.30;28.75;;;;;;;5.62;76.22;99471.31;5017615;28;20053;-71
2020/12/07 09:31:58;;;;;;;54.50;29.77;;;;;;;5.66;76.26;99463.31;5026128;28;20058;-71
2020/12/07 09:34:28;;;;;;;;;;;;;;;5.61;76.42;99460.72;5030289;28;20053;-70
2020/12/07 09:37:05;;;;;;;59.67;29.83;;;;;;;5.66;75.96;99455.94;5029723;28;19928;-71
2020/12/07 09:39:37;;;;;;;54.20;29.63;;;;;;;5.64;76.25;99460.09;5002841;28;20053;-71
2020/12/07 09:42:06;;;;;;;53.88;29.63;;;;;;;5.65;75.73;99448.03;5010561;28;20053;-71
2020/12/07 09:44:33;;;;;;;54.67;29.20;;;;;;;5.66;76.53;99455.13;5028257;28;20057;-70
2020/12/07 09:47:00;;;;;;;53.58;30.20;;;;;;;5.87;76.82;99460.91;5031207;28;20052;-72
2020/12/07 09:49:32;;;;;;;52.75;30.70;;;;;;;5.77;75.81;99458.41;5028146;28;20659;-72
2020/12/07 09:51:59;;;;;;;51.25;28.48;;;;;;;5.80;75.56;99463.25;4996919;28;20061;-71
2020/12/07 09:54:37;;;;;;;55.13;29.25;;;;;;;6.13;74.94;99462.66;5029979;28;20115;-72
2020/12/07 09:57:06;;;;;;;50.95;29.30;;;;;;;6.12;74.41;99458.28;5030177;28;20412;-70
2020/12/07 09:59:34;;;;;;;53.53;29.40;;;;;;;6.35;74.44;99468.03;5035670;28;20050;-72
2020/12/07 10:02:02;;;;;;;51.75;28.05;;;;;;;6.23;74.50;99469.75;5029607;28;20060;-73
2020/12/07 10:04:30;;;;;;;56.75;29.48;;;;;;;6.00;75.29;99460.03;5012406;28;20505;-71
2020/12/07 10:07:02;;;;;;;53.83;29.35;;;;;;;6.18;74.64;99457.03;5011864;28;20061;-72
2020/12/07 10:09:32;;;;;;;55.75;27.30;;;;;;;6.32;74.39;99465.13;5030160;28;20057;-72
2020/12/07 10:11:59;;;;;;;54.25;28.27;;;;;;;6.25;74.48;99465.59;5013044;28;20517;-74
2020/12/07 10:14:26;;;;;;;53.58;28.85;;;;;;;6.12;75.07;99471.97;4995910;28;20049;-73
2020/12/07 10:16:53;;;;;;;52.33;28.27;;;;;;;6.23;75.16;99456.09;5027409;28;20400;-71
2020/12/07 10:19:20;;;;;;;49.25;27.40;;;;;;;6.35;75.02;99456.28;5027731;28;20504;-70
2020/12/07 10:21:47;;;;;;;48.53;26.05;;;;;;;6.31;74.83;99460.81;5034535;28;20050;-72
2020/12/07 10:24:14;;;;;;;48.38;26.60;;;;;;;6.45;74.37;99447.81;5029230;28;20060;-72
2020/12/07 10:26:41;;;;;;;46.10;26.55;;;;;;;6.56;74.13;99454.59;5010080;28;20041;-73
2020/12/07 10:29:08;;;;;;;48.60;27.13;;;;;;;6.46;74.71;99441.22;4994132;28;20041;-72
2020/12/07 10:31:43;;;;;;;53.72;32.33;;;;;;;6.60;74.01;99437.25;4998674;28;20060;-72
2020/12/07 10:34:10;;;;;;;50.85;28.38;;;;;;;6.60;73.65;99437.25;4996252;28;20056;-73
2020/12/07 10:36:38;;;;;;;51.33;25.75;;;;;;;6.70;73.47;99431.47;5012895;28;20045;-71
2020/12/07 10:39:07;;;;;;;45.72;26.20;;;;;;;6.79;72.95;99428.75;5031294;28;20057;-72
2020/12/07 10:41:34;;;;;;;54.95;27.60;;;;;;;6.69;73.69;99429.84;5033557;28;20055;-71
2020/12/07 10:44:01;;;;;;;49.58;26.92;;;;;;;6.82;73.19;99423.44;5016309;28;20056;-71
2020/12/07 10:46:28;;;;;;;45.40;26.77;;;;;;;6.77;72.71;99420.03;5031703;28;20057;-71
2020/12/07 10:48:54;;;;;;;48.70;26.88;;;;;;;6.79;72.88;99413.13;5034351;28;20480;-73
2020/12/07 10:51:22;;;;;;;49.25;27.75;;;;;;;6.81;73.14;99421.84;5045315;28;20045;-72
2020/12/07 10:53:49;;;;;;;48.08;27.42;;;;;;;6.93;72.92;99420.38;5033924;28;20060;-71
2020/12/07 10:56:16;;;;;;;50.47;30.98;;;;;;;7.10;73.20;99420.38;5037698;28;20046;-71
2020/12/07 10:58:52;;;;;;;38.75;23.38;;;;;;;6.99;72.83;99414.41;5036400;28;20401;-71
2020/12/07 11:01:19;;;;;;;41.30;22.92;;;;;;;7.02;72.55;99411.06;5037063;28;20050;-71
2020/12/07 11:03:46;;;;;;;35.75;22.55;;;;;;;7.27;71.83;99406.72;5034032;28;20073;-73
2020/12/07 11:06:20;;;;;;;40.75;22.00;;;;;;;7.25;71.88;99400.75;5012972;28;20049;-73
2020/12/07 11:08:51;;;;;;;35.78;22.50;;;;;;;7.08;72.21;99406.25;5035519;28;20049;-69
2020/12/07 11:11:20;;;;;;;38.58;23.17;;;;;;;7.13;72.05;99404.13;5029773;28;20053;-72
2020/12/07 11:13:47;;;;;;;41.97;22.45;;;;;;;7.07;72.38;99394.47;5012428;28;20057;-73
2020/12/07 11:16:15;;;;;;;37.83;23.50;;;;;;;7.13;71.70;99400.59;5032241;28;20050;-73
2020/12/07 11:18:43;;;;;;;40.00;23.05;;;;;;;7.12;72.16;99405.25;5030918;28;20045;-70
2020/12/07 11:21:20;;;;;;;36.97;22.05;;;;;;;7.12;72.40;99405.25;4999429;28;20057;-73
2020/12/07 11:24:47;;;;;;;35.60;22.13;;;;;;;7.21;72.08;99389.63;5020492;28;20041;-73
2020/12/07 11:28:18;;;;;;;33.70;20.83;;;;;;;7.53;71.17;99382.81;5002891;28;20073;-73
2020/12/07 11:31:49;;;;;;;31.00;19.38;;;;;;;7.62;70.93;99378.91;4999201;28;20049;-72
2020/12/07 11:34:19;;;;;;;30.70;19.20;;;;;;;7.44;70.86;99374.63;5011978;28;20048;-70
2020/12/07 11:36:47;;;;;;;;;;;;;;;7.18;72.01;99378.53;5014461;28;20049;-71
2020/12/07 11:44:12;;;;;;;;;;;;;;;7.23;71.80;99367.41;5008525;28;20048;-67
2020/12/07 11:49:06;;;;;;;33.70;21.58;;;;;;;7.21;70.91;99347.75;5011762;28;20067;-68
2020/12/07 11:51:33;;;;;;;34.97;20.63;;;;;;;7.23;71.84;99342.75;4996362;28;20082;-69
2020/12/07 11:54:00;;;;;;;33.05;20.73;;;;;;;7.50;71.56;99337.69;4995325;28;20069;-75
2020/12/07 11:56:29;;;;;;;32.25;19.83;;;;;;;7.47;70.44;99334.81;5011108;28;20061;-67
2020/12/07 11:58:57;;;;;;;28.70;19.90;;;;;;;7.41;70.53;99331.44;5012726;28;20045;-67
2020/12/07 12:01:24;;;;;;;36.80;19.85;;;;;;;7.37;70.86;99327.75;5014945;28;20058;-73
2020/12/07 12:03:51;;;;;;;29.35;19.80;;;;;;;7.39;70.83;99325.47;5015484;28;20073;-74
2020/12/07 12:06:25;;;;;;;37.33;19.88;;;;;;;7.27;71.47;99327.28;5026683;28;20047;-69
2020/12/07 12:08:53;;;;;;;31.23;19.60;;;;;;;7.37;71.38;99322.28;4998142;28;20045;-73
2020/12/07 12:11:26;;;;;;;29.48;18.85;;;;;;;7.43;71.25;99320.13;4995765;28;20058;-71
2020/12/07 12:13:54;;;;;;;32.90;21.05;;;;;;;7.77;71.66;99311.81;5012896;28;20491;-68
2020/12/07 12:16:21;;;;;;;29.42;20.48;;;;;;;7.76;70.48;99315.69;5013772;28;20045;-68
2020/12/07 12:19:01;;;;;;;35.58;20.02;;;;;;;7.76;70.07;99308.28;5013827;28;20050;-67
2020/12/07 12:21:29;;;;;;;30.13;18.73;;;;;;;7.65;69.52;99308.97;4994220;28;20061;-67
2020/12/07 12:24:01;;;;;;;27.88;17.80;;;;;;;7.64;69.05;99301.88;5012487;28;20478;-67
2020/12/07 12:26:29;;;;;;;27.08;17.35;;;;;;;7.54;69.17;99304.97;5007905;28;20054;-66